createdAt,value
2019-01-21T00:01:43.479Z,-2.61
2019-01-21T00:04:13.381Z,-2.61
2019-01-21T00:06:43.143Z,-2.62
2019-01-21T00:09:12.809Z,-2.67
2019-01-21T00:11:42.927Z,-2.65
2019-01-21T00:14:12.964Z,-2.60
2019-01-21T00:16:42.637Z,-2.58
2019-01-21T00:19:13.165Z,-2.63
2019-01-21T00:21:44.151Z,-2.68
2019-01-21T00:24:14.283Z,-2.75
2019-01-21T00:26:45.262Z,-2.72
2019-01-21T00:29:15.527Z,-2.81
2019-01-21T00:31:45.537Z,-2.99
2019-01-21T00:34:15.300Z,-2.99
2019-01-21T00:36:45.128Z,-2.97
2019-01-21T00:39:15.401Z,-2.94
2019-01-21T00:41:45.376Z,-2.89
2019-01-21T00:44:15.000Z,-2.89
2019-01-21T00:46:44.800Z,-2.93
2019-01-21T00:49:15.184Z,-2.93
2019-01-21T00:51:44.822Z,-2.98
2019-01-21T00:54:14.510Z,-3.03
2019-01-21T00:56:44.351Z,-3.03
2019-01-21T00:59:14.148Z,-3.08
2019-01-21T01:01:43.998Z,-2.99
2019-01-21T01:04:14.476Z,-2.86
2019-01-21T01:06:44.970Z,-3.00
2019-01-21T01:09:14.704Z,-2.93
2019-01-21T01:11:44.539Z,-2.79
2019-01-21T01:14:14.922Z,-2.74
2019-01-21T01:16:44.820Z,-2.76
2019-01-21T01:19:14.599Z,-2.83
2019-01-21T01:21:44.950Z,-2.83
2019-01-21T01:24:14.714Z,-2.74
2019-01-21T01:26:44.706Z,-2.78
2019-01-21T01:29:14.765Z,-2.85
2019-01-21T01:31:44.440Z,-2.93
2019-01-21T01:34:14.132Z,-2.96
2019-01-21T01:36:43.861Z,-2.99
2019-01-21T01:39:14.369Z,-2.99
2019-01-21T01:41:44.111Z,-3.13
2019-01-21T01:44:13.994Z,-3.08
2019-01-21T01:46:44.620Z,-3.07
2019-01-21T01:49:14.619Z,-3.18
2019-01-21T01:51:46.343Z,-3.27
2019-01-21T01:54:16.107Z,-3.19
2019-01-21T01:56:45.801Z,-3.19
2019-01-21T01:59:15.590Z,-3.18
2019-01-21T02:01:45.647Z,-3.34
2019-01-21T02:04:16.077Z,-3.21
2019-01-21T02:06:46.045Z,-3.11
2019-01-21T02:09:16.368Z,-3.07
2019-01-21T02:11:46.112Z,-3.04
2019-01-21T02:14:15.872Z,-3.07
2019-01-21T02:16:46.235Z,-3.07
2019-01-21T02:19:16.307Z,-3.23
2019-01-21T02:21:45.974Z,-3.21
2019-01-21T02:24:18.355Z,-3.25
2019-01-21T02:27:03.811Z,-3.21
2019-01-21T02:30:19.702Z,-3.12
2019-01-21T02:33:37.307Z,-3.20
2019-01-21T02:36:24.975Z,-3.30
2019-01-21T02:39:29.912Z,-3.39
2019-01-21T02:42:10.511Z,-3.38
2019-01-21T02:45:36.483Z,-3.38
2019-01-21T02:48:22.171Z,-3.45
2019-01-21T02:51:35.510Z,-3.45
2019-01-21T02:54:45.972Z,-3.46
2019-01-21T02:57:31.584Z,-3.50
2019-01-21T03:00:24.856Z,-3.50
2019-01-21T03:03:26.448Z,-3.47
2019-01-21T03:06:03.191Z,-3.38
2019-01-21T03:08:56.696Z,-3.53
2019-01-21T03:11:52.221Z,-3.46
2019-01-21T03:14:43.242Z,-3.46
2019-01-21T03:17:44.684Z,-3.43
2019-01-21T03:20:21.654Z,-3.47
2019-01-21T03:23:40.410Z,-3.56
2019-01-21T03:26:53.540Z,-3.58
2019-01-21T03:29:57.397Z,-3.68
2019-01-21T03:33:04.702Z,-3.68
2019-01-21T03:35:49.355Z,-3.68
2019-01-21T03:38:36.822Z,-3.68
2019-01-21T03:41:25.595Z,-3.65
2019-01-21T03:44:26.100Z,-3.64
2019-01-21T03:47:12.310Z,-3.64
2019-01-21T03:50:04.464Z,-3.61
2019-01-21T03:53:06.796Z,-3.58
2019-01-21T03:55:36.768Z,-3.54
2019-01-21T03:58:21.577Z,-3.51
2019-01-21T04:01:17.471Z,-3.52
2019-01-21T04:04:30.210Z,-3.57
2019-01-21T04:07:13.572Z,-3.57
2019-01-21T04:10:36.400Z,-3.63
2019-01-21T04:13:32.830Z,-3.48
2019-01-21T04:16:26.124Z,-3.33
2019-01-21T04:19:48.939Z,-3.49
2019-01-21T04:22:51.765Z,-3.47
2019-01-21T04:26:04.113Z,-3.47
2019-01-21T04:29:05.924Z,-3.51
2019-01-21T04:32:00.076Z,-3.55
2019-01-21T04:35:02.276Z,-3.49
2019-01-21T04:38:01.653Z,-3.51
2019-01-21T04:41:30.413Z,-3.51
2019-01-21T04:44:34.763Z,-3.44
2019-01-21T04:47:52.135Z,-3.63
2019-01-21T04:50:55.697Z,-3.79
2019-01-21T04:54:00.827Z,-3.78
2019-01-21T04:57:23.276Z,-3.84
2019-01-21T05:00:43.577Z,-3.78
2019-01-21T05:03:32.252Z,-3.78
2019-01-21T05:06:24.418Z,-3.72
2019-01-21T05:09:29.762Z,-3.72
2019-01-21T05:12:40.564Z,-3.67
2019-01-21T05:15:48.574Z,-3.67
2019-01-21T05:18:53.372Z,-3.71
2019-01-21T05:22:06.253Z,-3.78
2019-01-21T05:25:22.530Z,-3.78
2019-01-21T05:28:45.367Z,-3.85
2019-01-21T05:31:51.631Z,-3.83
2019-01-21T05:34:57.231Z,-3.92
2019-01-21T05:37:58.120Z,-3.92
2019-01-21T05:41:05.111Z,-3.89
2019-01-21T05:44:13.422Z,-3.97
2019-01-21T05:47:42.408Z,-3.89
2019-01-21T05:50:55.595Z,-3.89
2019-01-21T05:53:38.659Z,-3.90
2019-01-21T05:56:39.274Z,-3.85
2019-01-21T06:00:05.735Z,-3.86
2019-01-21T06:03:11.103Z,-3.94
2019-01-21T06:06:46.024Z,-3.98
2019-01-21T06:09:47.078Z,-4.05
2019-01-21T06:12:57.306Z,-4.17
2019-01-21T06:16:16.997Z,-4.17
2019-01-21T06:19:26.533Z,-4.20
2019-01-21T06:22:23.747Z,-4.22
2019-01-21T06:25:22.286Z,-4.21
2019-01-21T06:28:21.318Z,-4.27
2019-01-21T06:31:43.072Z,-4.21
2019-01-21T06:34:40.751Z,-4.28
2019-01-21T06:37:47.283Z,-4.20
2019-01-21T06:40:49.884Z,-4.22
2019-01-21T06:44:15.954Z,-4.31
2019-01-21T06:47:17.352Z,-4.31
2019-01-21T06:50:09.628Z,-4.32
2019-01-21T06:53:05.859Z,-4.07
2019-01-21T06:56:08.456Z,-4.11
2019-01-21T06:59:38.911Z,-4.05
2019-01-21T07:02:44.334Z,-4.09
2019-01-21T07:06:07.231Z,-4.09
2019-01-21T07:09:08.979Z,-4.01
2019-01-21T07:12:05.204Z,-4.06
2019-01-21T07:14:49.284Z,-4.11
2019-01-21T07:17:39.951Z,-4.07
2019-01-21T07:20:54.973Z,-4.05
2019-01-21T07:24:06.036Z,-3.98
2019-01-21T07:27:16.965Z,-3.98
2019-01-21T07:30:29.433Z,-3.99
2019-01-21T07:33:24.613Z,-3.99
2019-01-21T07:36:59.570Z,-4.03
2019-01-21T07:40:12.137Z,-4.03
2019-01-21T07:43:02.326Z,-4.03
2019-01-21T07:45:43.173Z,-4.04
2019-01-21T07:48:41.050Z,-4.08
2019-01-21T07:51:43.970Z,-4.11
2019-01-21T07:54:45.380Z,-4.02
2019-01-21T07:57:43.763Z,-3.92
2019-01-21T08:00:49.079Z,-3.94
2019-01-21T08:04:03.227Z,-3.94
2019-01-21T08:06:48.696Z,-3.89
2019-01-21T08:09:44.262Z,-3.83
2019-01-21T08:13:02.936Z,-3.75
2019-01-21T08:16:29.019Z,-3.73
2019-01-21T08:19:34.535Z,-3.71
2019-01-21T08:22:44.320Z,-3.71
2019-01-21T08:26:06.211Z,-3.71
2019-01-21T08:29:13.141Z,-3.60
2019-01-21T08:32:39.234Z,-3.49
2019-01-21T08:35:52.888Z,-3.50
2019-01-21T08:38:56.672Z,-3.51
2019-01-21T08:41:59.459Z,-3.41
2019-01-21T08:45:12.662Z,-3.41
2019-01-21T08:48:19.317Z,-3.35
2019-01-21T08:51:05.390Z,-3.34
2019-01-21T08:54:00.342Z,-3.27
2019-01-21T08:57:10.056Z,-3.21
2019-01-21T08:59:59.928Z,-3.21
2019-01-21T09:03:25.798Z,-3.21
2019-01-21T09:07:00.698Z,-3.02
2019-01-21T09:09:40.637Z,-2.83
2019-01-21T09:12:48.184Z,-2.71
2019-01-21T09:15:43.092Z,-2.57
2019-01-21T09:18:49.806Z,-2.57
2019-01-21T09:21:59.182Z,-2.55
2019-01-21T09:25:12.645Z,-2.51
2019-01-21T09:28:20.532Z,-2.69
2019-01-21T09:31:05.126Z,-2.56
2019-01-21T09:34:15.542Z,-2.72
2019-01-21T09:36:57.642Z,-2.72
2019-01-21T09:40:16.353Z,-2.46
2019-01-21T09:43:08.930Z,-2.33
2019-01-21T09:46:28.727Z,-2.31
2019-01-21T09:48:56.722Z,-2.26
2019-01-21T09:51:26.828Z,-2.12
2019-01-21T09:53:57.543Z,-2.12
2019-01-21T09:56:33.187Z,-2.24
2019-01-21T09:59:03.403Z,-2.24
2019-01-21T10:01:33.357Z,-2.11
2019-01-21T10:04:03.185Z,-1.73
2019-01-21T10:06:49.995Z,-1.73
2019-01-21T10:09:48.430Z,-1.85
2019-01-21T10:13:02.466Z,-1.79
2019-01-21T10:16:09.054Z,-1.79
2019-01-21T10:19:22.843Z,-1.96
2019-01-21T10:22:28.443Z,-1.93
2019-01-21T10:25:26.041Z,-1.93
2019-01-21T10:28:42.943Z,-1.82
2019-01-21T10:31:59.228Z,-1.82
2019-01-21T10:34:52.000Z,-1.52
2019-01-21T10:38:13.677Z,-1.62
2019-01-21T10:41:14.358Z,-1.53
2019-01-21T10:44:28.254Z,-1.49
2019-01-21T10:47:17.732Z,-1.17
2019-01-21T10:50:22.291Z,-1.02
2019-01-21T10:53:50.846Z,-1.41
2019-01-21T10:56:44.805Z,-1.59
2019-01-21T10:59:42.157Z,-1.57
2019-01-21T11:02:48.397Z,-1.40
2019-01-21T11:05:57.733Z,-1.45
2019-01-21T11:08:52.602Z,-1.08
2019-01-21T11:11:58.994Z,-1.08
2019-01-21T11:14:45.803Z,-0.99
2019-01-21T11:17:47.409Z,-0.81
2019-01-21T11:21:07.083Z,-1.21
2019-01-21T11:24:05.572Z,-1.01
2019-01-21T11:27:26.164Z,-1.15
2019-01-21T11:30:27.960Z,-0.96
2019-01-21T11:33:44.694Z,-0.74
2019-01-21T11:36:40.564Z,-0.27
2019-01-21T11:39:57.509Z,-0.21
2019-01-21T11:43:14.185Z,-0.21
2019-01-21T11:46:53.128Z,-0.04
2019-01-21T11:50:10.325Z,-0.09
2019-01-21T11:52:50.564Z,-0.09
2019-01-21T11:56:01.489Z,0.10
2019-01-21T11:59:00.654Z,0.10
2019-01-21T12:02:16.358Z,0.14
2019-01-21T12:05:35.246Z,0.14
2019-01-21T12:08:55.410Z,0.53
2019-01-21T12:11:40.377Z,0.09
2019-01-21T12:14:43.076Z,0.28
2019-01-21T12:17:43.781Z,0.28
2019-01-21T12:21:00.924Z,0.40
2019-01-21T12:24:08.095Z,0.40
2019-01-21T12:27:19.611Z,0.67
2019-01-21T12:30:40.111Z,0.67
2019-01-21T12:33:46.369Z,0.52
2019-01-21T12:36:45.130Z,0.52
2019-01-21T12:40:13.229Z,0.62
2019-01-21T12:43:34.165Z,0.62
2019-01-21T12:46:43.548Z,0.55
2019-01-21T12:50:04.972Z,0.48
2019-01-21T12:53:06.023Z,0.69
2019-01-21T12:56:25.695Z,0.63
2019-01-21T12:59:09.124Z,0.72
2019-01-21T13:02:17.131Z,0.72
2019-01-21T13:05:33.658Z,0.69
2019-01-21T13:08:51.025Z,0.56
2019-01-21T13:12:09.785Z,0.70
2019-01-21T13:15:04.510Z,0.78
2019-01-21T13:17:50.224Z,0.76
2019-01-21T13:20:41.673Z,0.76
2019-01-21T13:23:38.711Z,0.71
2019-01-21T13:26:48.060Z,0.83
2019-01-21T13:29:58.303Z,0.93
2019-01-21T13:33:10.958Z,0.93
2019-01-21T13:36:09.554Z,0.86
2019-01-21T13:39:32.364Z,1.02
2019-01-21T13:42:37.965Z,0.88
2019-01-21T13:45:53.160Z,0.84
2019-01-21T13:48:33.366Z,0.84
2019-01-21T13:51:37.701Z,1.01
2019-01-21T13:54:46.112Z,0.94
2019-01-21T13:57:51.520Z,1.09
2019-01-21T14:00:45.087Z,1.09
2019-01-21T14:03:42.628Z,1.16
2019-01-21T14:06:46.674Z,1.16
2019-01-21T14:10:09.008Z,0.97
2019-01-21T14:13:05.357Z,1.21
2019-01-21T14:16:33.933Z,0.98
2019-01-21T14:19:42.583Z,0.98
2019-01-21T14:22:58.292Z,0.97
2019-01-21T14:26:08.242Z,1.13
2019-01-21T14:29:00.326Z,1.03
2019-01-21T14:32:20.404Z,1.03
2019-01-21T14:35:25.184Z,1.03
2019-01-21T14:38:19.285Z,0.83
2019-01-21T14:41:37.452Z,0.83
2019-01-21T14:44:40.230Z,0.54
2019-01-21T14:47:56.157Z,0.85
2019-01-21T14:50:53.739Z,0.78
2019-01-21T14:54:08.766Z,0.85
2019-01-21T14:57:22.670Z,0.86
2019-01-21T15:00:11.716Z,0.86
2019-01-21T15:03:10.678Z,0.50
2019-01-21T15:06:22.309Z,0.70
2019-01-21T15:09:30.464Z,0.59
2019-01-21T15:12:38.620Z,0.64
2019-01-21T15:15:47.881Z,0.52
2019-01-21T15:18:54.724Z,0.32
2019-01-21T15:21:55.845Z,0.25
2019-01-21T15:25:21.759Z,0.22
2019-01-21T15:28:31.924Z,0.04
2019-01-21T15:31:20.642Z,-0.06
2019-01-21T15:34:44.684Z,-0.06
2019-01-21T15:37:48.613Z,-0.25
2019-01-21T15:41:05.061Z,-0.19
2019-01-21T15:44:00.854Z,-0.28
2019-01-21T15:47:09.044Z,-0.28
2019-01-21T15:49:45.310Z,-0.50
2019-01-21T15:52:19.827Z,-0.39
2019-01-21T15:55:25.812Z,-0.62
2019-01-21T15:58:08.647Z,-0.72
2019-01-21T16:01:11.110Z,-0.55
2019-01-21T16:06:24.386Z,-0.05
2019-01-21T16:09:47.488Z,0.18
2019-01-21T16:13:08.384Z,0.18
2019-01-21T16:16:31.768Z,-0.55
2019-01-21T16:19:22.405Z,-0.55
2019-01-21T16:22:18.766Z,-0.60
2019-01-21T16:25:14.232Z,-0.73
2019-01-21T16:28:26.778Z,-0.78
2019-01-21T16:31:09.860Z,-0.96
2019-01-21T16:34:16.766Z,-0.89
2019-01-21T16:37:14.376Z,-1.07
2019-01-21T16:40:19.777Z,-1.18
2019-01-21T16:42:49.888Z,-1.12
2019-01-21T16:45:22.739Z,-1.12
2019-01-21T16:47:52.878Z,-1.32
2019-01-21T16:50:22.877Z,-1.38
2019-01-21T16:52:55.955Z,-1.62
2019-01-21T16:55:25.528Z,-1.62
2019-01-21T16:57:55.056Z,-1.51
2019-01-21T17:00:24.949Z,-1.58
2019-01-21T17:02:54.769Z,-1.58
2019-01-21T17:05:24.881Z,-1.67
2019-01-21T17:07:57.847Z,-1.64
2019-01-21T17:10:28.430Z,-1.76
2019-01-21T17:13:00.338Z,-1.77
2019-01-21T17:15:30.015Z,-1.77
2019-01-21T17:17:59.570Z,-1.89
2019-01-21T17:20:32.226Z,-1.88
2019-01-21T17:23:05.146Z,-1.79
2019-01-21T17:25:35.236Z,-1.83
2019-01-21T17:28:06.962Z,-1.73
2019-01-21T17:30:37.594Z,-1.81
2019-01-21T17:33:07.944Z,-1.81
2019-01-21T17:35:37.494Z,-1.73
2019-01-21T17:38:07.667Z,-1.73
2019-01-21T17:40:41.587Z,-1.99
2019-01-21T17:43:11.829Z,-1.99
2019-01-21T17:45:41.440Z,-1.98
2019-01-21T17:48:11.457Z,-1.90
2019-01-21T17:50:41.445Z,-1.94
2019-01-21T17:53:11.328Z,-1.98
2019-01-21T17:55:41.733Z,-2.09
2019-01-21T17:58:11.553Z,-2.08
2019-01-21T18:00:41.179Z,-2.07
2019-01-21T18:03:11.117Z,-2.16
2019-01-21T18:05:40.985Z,-2.16
2019-01-21T18:08:10.531Z,-2.13
2019-01-21T18:10:40.136Z,-2.17
2019-01-21T18:13:10.763Z,-2.17
2019-01-21T18:15:41.065Z,-2.26
2019-01-21T18:18:10.746Z,-2.29
2019-01-21T18:20:40.256Z,-2.38
2019-01-21T18:23:13.046Z,-2.30
2019-01-21T18:25:44.421Z,-2.28
2019-01-21T18:28:17.238Z,-2.31
2019-01-21T18:30:47.461Z,-2.23
2019-01-21T18:33:17.246Z,-2.23
2019-01-21T18:35:47.593Z,-2.41
2019-01-21T18:38:17.651Z,-2.32
2019-01-21T18:40:47.299Z,-2.34
2019-01-21T18:43:17.088Z,-2.34
2019-01-21T18:45:46.884Z,-2.38
2019-01-21T18:48:17.130Z,-2.41
2019-01-21T18:50:46.691Z,-2.39
2019-01-21T18:53:19.069Z,-2.43
2019-01-21T18:55:48.872Z,-2.44
2019-01-21T18:58:18.448Z,-2.40
2019-01-21T19:00:48.027Z,-2.42
2019-01-21T19:03:17.594Z,-2.41
2019-01-21T19:05:47.762Z,-2.44
2019-01-21T19:08:18.155Z,-2.44
2019-01-21T19:10:47.624Z,-2.43
2019-01-21T19:13:17.214Z,-2.46
2019-01-21T19:15:46.834Z,-2.39
2019-01-21T19:18:16.420Z,-2.42
2019-01-21T19:20:46.217Z,-2.42
2019-01-21T19:23:15.819Z,-2.48
2019-01-21T19:25:45.684Z,-2.48
2019-01-21T19:28:18.384Z,-2.50
2019-01-21T19:30:47.946Z,-2.53
2019-01-21T19:33:17.757Z,-2.50
2019-01-21T19:35:47.312Z,-2.52
2019-01-21T19:38:17.736Z,-2.44
2019-01-21T19:40:47.338Z,-2.33
2019-01-21T19:43:17.305Z,-2.35
2019-01-21T19:45:47.038Z,-2.38
2019-01-21T19:48:16.610Z,-2.49
2019-01-21T19:50:52.238Z,-2.49
2019-01-21T19:53:24.804Z,-2.65
2019-01-21T19:55:54.337Z,-2.65
2019-01-21T19:58:25.045Z,-2.65
2019-01-21T20:00:54.675Z,-2.54
2019-01-21T20:03:25.656Z,-2.55
2019-01-21T20:05:55.267Z,-2.69
2019-01-21T20:08:29.090Z,-2.61
2019-01-21T20:10:59.145Z,-2.70
2019-01-21T20:13:31.176Z,-2.65
2019-01-21T20:16:01.077Z,-2.61
2019-01-21T20:18:31.670Z,-2.56
2019-01-21T20:21:06.103Z,-2.64
2019-01-21T20:23:37.529Z,-2.64
2019-01-21T20:26:07.237Z,-2.75
2019-01-21T20:28:36.858Z,-2.78
2019-01-21T20:31:07.605Z,-2.72
2019-01-21T20:33:40.013Z,-2.76
2019-01-21T20:36:10.445Z,-2.76
2019-01-21T20:38:40.306Z,-2.75
2019-01-21T20:41:10.538Z,-2.78
2019-01-21T20:43:40.310Z,-2.82
2019-01-21T20:46:10.169Z,-2.85
2019-01-21T20:48:39.889Z,-2.88
2019-01-21T20:51:09.620Z,-2.88
2019-01-21T20:53:39.143Z,-2.84
2019-01-21T20:56:08.949Z,-2.78
2019-01-21T20:58:39.487Z,-2.78
2019-01-21T21:01:12.265Z,-2.80
2019-01-21T21:03:44.648Z,-2.90
2019-01-21T21:06:17.115Z,-3.00
2019-01-21T21:08:48.886Z,-2.89
2019-01-21T21:11:19.068Z,-3.02
2019-01-21T21:13:52.275Z,-3.01
2019-01-21T21:16:22.026Z,-3.03
2019-01-21T21:18:52.044Z,-2.92
2019-01-21T21:21:22.760Z,-2.96
2019-01-21T21:23:53.108Z,-2.96
2019-01-21T21:26:23.665Z,-2.96
2019-01-21T21:28:57.648Z,-3.05
2019-01-21T21:31:27.814Z,-3.04
2019-01-21T21:33:59.418Z,-3.19
2019-01-21T21:36:31.446Z,-2.98
2019-01-21T21:39:01.476Z,-3.08
2019-01-21T21:41:31.528Z,-3.22
2019-01-21T21:44:01.915Z,-3.21
2019-01-21T21:46:32.428Z,-3.20
2019-01-21T21:49:02.593Z,-3.15
2019-01-21T21:51:32.550Z,-3.18
2019-01-21T21:54:02.410Z,-3.26
2019-01-21T21:56:36.162Z,-3.26
2019-01-21T21:59:06.442Z,-3.20
2019-01-21T22:01:40.107Z,-3.30
2019-01-21T22:04:09.544Z,-3.30
2019-01-21T22:06:40.916Z,-3.20
2019-01-21T22:09:11.753Z,-3.20
2019-01-21T22:11:45.570Z,-3.26
2019-01-21T22:14:18.431Z,-3.26
2019-01-21T22:16:49.126Z,-3.24
2019-01-21T22:19:20.754Z,-3.24
2019-01-21T22:21:50.624Z,-3.24
2019-01-21T22:24:24.542Z,-3.27
2019-01-21T22:26:54.523Z,-3.31
2019-01-21T22:29:24.257Z,-3.29
2019-01-21T22:31:57.294Z,-3.32
2019-01-21T22:34:27.337Z,-3.32
2019-01-21T22:36:56.973Z,-3.22
2019-01-21T22:39:27.124Z,-3.34
2019-01-21T22:41:59.234Z,-3.41
2019-01-21T22:44:29.116Z,-3.41
2019-01-21T22:46:59.131Z,-3.33
2019-01-21T22:49:30.705Z,-3.33
2019-01-21T22:52:02.326Z,-3.33
2019-01-21T22:54:32.374Z,-3.24
2019-01-21T22:57:03.030Z,-3.34
2019-01-21T22:59:32.805Z,-3.30
2019-01-21T23:02:02.680Z,-3.33
2019-01-21T23:04:32.916Z,-3.33
2019-01-21T23:07:03.705Z,-3.26
2019-01-21T23:09:33.590Z,-3.40
2019-01-21T23:12:03.552Z,-3.30
2019-01-21T23:14:33.230Z,-3.33
2019-01-21T23:17:02.975Z,-3.33
2019-01-21T23:19:32.702Z,-3.54
2019-01-21T23:22:02.679Z,-3.54
2019-01-21T23:24:32.164Z,-3.61
2019-01-21T23:27:03.481Z,-3.67
2019-01-21T23:29:33.508Z,-3.67
2019-01-21T23:32:05.945Z,-3.61
2019-01-21T23:34:35.635Z,-3.54
2019-01-21T23:37:05.814Z,-3.54
2019-01-21T23:39:35.456Z,-3.46
2019-01-21T23:42:05.035Z,-3.36
2019-01-21T23:44:35.106Z,-3.31
2019-01-21T23:47:05.420Z,-3.43
2019-01-21T23:49:35.885Z,-3.58
2019-01-21T23:52:06.011Z,-3.50
2019-01-21T23:54:39.392Z,-3.50
2019-01-21T23:57:09.342Z,-3.42
2019-01-21T23:59:39.306Z,-3.42
